Terminal Aerodrome Forecast
Issued by NWS

Home | Current Version | Previous Version | Text Only | Print | Product List | Glossary On
Versions: 1 2 3 4 5 6 7 8 9 10 11 12 13 14 15 16 17 18 19 20
000
FTUS44 KLZK 272321
TAFHOT
TAF
KHOT 272321Z 2800/2824 VRB05KT P6SM VCSH SCT050 BKN100
     FM280600 VRB03KT P6SM VCFG BKN100
      TEMPO 2806/2810 5SM BR
     FM281000 VRB02KT 5SM BR OVC100
      TEMPO 2810/2814 2SM BR SCT008
     FM281400 22006KT P6SM VCTS SCT050CB OVC100=

USA.gov is the U.S. government's official web portal to all federal, state and local government web resources and services.